Time;durP1;ratioP1;P1;durP2;ratioP2;P2;SDS_P1;SDS_P2;PMS_P1;PMS_P2;Temp;Humidity;BMP_temperature;BMP_pressure;BME280_temperature;BME280_humidity;BME280_pressure;Samples;Min_cycle;Max_cycle;Signal;HPM_P1;HPM_P2
2023/04/11 00:00:58;;;;;;;174.13;160.10;;;;;;;;;;5041590;28;20786;-68
2023/04/11 00:03:24;;;;;;;433.47;404.63;;;;;;;;;;5044146;28;20829;-69
2023/04/11 00:05:50;;;;;;;423.17;394.73;;;;;;;;;;5046272;28;20418;-68
2023/04/11 00:08:16;;;;;;;328.07;305.40;;;;;;;;;;5045384;28;20850;-68
2023/04/11 00:10:42;;;;;;;198.90;183.30;;;;;;;;;;5045636;28;20474;-69
2023/04/11 00:13:09;;;;;;;314.27;292.57;;;;;;;;;;5045298;28;20413;-69
2023/04/11 00:15:36;;;;;;;348.07;324.27;;;;;;;;;;5041670;28;20488;-69
2023/04/11 00:18:02;;;;;;;230.87;214.27;;;;;;;;;;5045356;28;20434;-68
2023/04/11 00:20:28;;;;;;;316.43;295.50;;;;;;;;;;5043891;28;20468;-69
2023/04/11 00:22:54;;;;;;;426.30;398.13;;;;;;;;;;5044170;28;20425;-69
2023/04/11 00:25:20;;;;;;;359.43;333.90;;;;;;;;;;5044407;28;20625;-69
2023/04/11 00:27:46;;;;;;;215.13;198.53;;;;;;;;;;5045843;28;20772;-69
2023/04/11 00:30:12;;;;;;;287.63;267.07;;;;;;;;;;5044791;28;20465;-68
2023/04/11 00:32:38;;;;;;;325.57;300.63;;;;;;;;;;5045349;28;20413;-68
2023/04/11 00:35:04;;;;;;;345.93;321.40;;;;;;;;;;5045659;28;20414;-68
2023/04/11 00:37:34;;;;;;;416.90;387.47;;;;;;;;;;5045600;28;20411;-69
2023/04/11 00:40:03;;;;;;;220.80;204.07;;;;;;;;;;5043780;28;20964;-68
2023/04/11 00:42:30;;;;;;;276.13;256.97;;;;;;;;;;5037827;28;20409;-68
2023/04/11 00:44:56;;;;;;;409.27;380.47;;;;;;;;;;5036611;28;20793;-71
2023/04/11 00:47:22;;;;;;;190.93;175.23;;;;;;;;;;5036850;28;20414;-68
2023/04/11 00:49:48;;;;;;;162.50;148.60;;;;;;;;;;5036701;28;20507;-68
2023/04/11 00:52:14;;;;;;;338.10;315.80;;;;;;;;;;5036047;28;20814;-68
2023/04/11 00:54:40;;;;;;;339.27;316.17;;;;;;;;;;5036222;28;20409;-69
2023/04/11 00:57:07;;;;;;;313.20;290.43;;;;;;;;;;5036973;28;20444;-68
2023/04/11 00:59:33;;;;;;;392.77;367.77;;;;;;;;;;5035587;28;20477;-69
2023/04/11 01:02:00;;;;;;;372.60;347.73;;;;;;;;;;5035316;28;20421;-69
2023/04/11 01:04:28;;;;;;;666.53;606.90;;;;;;;;;;5037115;28;20501;-68
2023/04/11 01:06:56;;;;;;;294.10;274.23;;;;;;;;;;5037615;28;20421;-68
2023/04/11 01:09:24;;;;;;;280.30;259.77;;;;;;;;;;5037627;28;21054;-69
2023/04/11 01:11:50;;;;;;;421.00;393.40;;;;;;;;;;5038675;28;20417;-68
2023/04/11 01:14:17;;;;;;;434.73;405.37;;;;;;;;;;5038081;28;20424;-68
2023/04/11 01:16:46;;;;;;;355.87;332.37;;;;;;;;;;5038247;28;20422;-68
2023/04/11 01:19:16;;;;;;;540.10;498.03;;;;;;;;;;5039295;28;20433;-68
2023/04/11 01:21:43;;;;;;;276.80;257.27;;;;;;;;;;5037175;28;20449;-68
2023/04/11 01:24:08;;;;;;;117.50;105.67;;;;;;;;;;5038771;28;20414;-69
2023/04/11 01:26:35;;;;;;;407.53;380.60;;;;;;;;;;5038289;28;20457;-68
2023/04/11 01:32:04;;;;;;;246.87;228.87;;;;;;;;;;5038246;28;20392;-68
2023/04/11 01:34:31;;;;;;;365.00;338.97;;;;;;;;;;5041539;28;20518;-69
2023/04/11 01:36:57;;;;;;;369.60;345.40;;;;;;;;;;5039304;28;20446;-67
2023/04/11 01:39:23;;;;;;;271.43;249.90;;;;;;;;;;5039289;28;20808;-68
2023/04/11 01:41:50;;;;;;;337.80;313.20;;;;;;;;;;5037373;28;20521;-68
2023/04/11 01:44:16;;;;;;;400.97;375.00;;;;;;;;;;5039179;28;20460;-68
2023/04/11 01:46:42;;;;;;;554.43;516.80;;;;;;;;;;5038300;28;20458;-68
2023/04/11 01:49:09;;;;;;;405.70;378.83;;;;;;;;;;5038826;28;20475;-69
2023/04/11 01:51:35;;;;;;;484.53;452.60;;;;;;;;;;5039028;28;20409;-69
2023/04/11 01:54:01;;;;;;;217.33;200.13;;;;;;;;;;5039071;28;20433;-69
2023/04/11 01:56:26;;;;;;;305.97;283.87;;;19.30;1.00;;;;;;5038361;28;20422;-69
2023/04/11 01:58:52;;;;;;;413.90;386.10;;;14.10;1.00;;;;;;5039684;28;20431;-68
2023/04/11 02:01:18;;;;;;;538.63;497.57;;;14.00;1.00;;;;;;5039163;28;20181;-69
2023/04/11 02:03:44;;;;;;;222.07;205.03;;;14.00;1.00;;;;;;5039322;28;20187;-69
2023/04/11 02:06:10;;;;;;;171.93;156.93;;;14.00;1.00;;;;;;5039213;28;20805;-69
2023/04/11 02:08:35;;;;;;;421.97;392.23;;;13.90;1.00;;;;;;5038949;28;20466;-69
2023/04/11 02:11:01;;;;;;;183.10;168.83;;;13.90;1.00;;;;;;5036441;28;20298;-69
2023/04/11 02:13:27;;;;;;;67.20;33.00;;;14.00;1.00;;;;;;5038312;28;20234;-69
2023/04/11 02:15:52;;;;;;;141.93;129.07;;;13.90;1.00;;;;;;5039983;28;20178;-68
2023/04/11 02:18:18;;;;;;;493.93;460.73;;;13.90;1.00;;;;;;5043089;28;20272;-69
2023/04/11 02:20:43;;;;;;;337.67;314.47;;;13.90;1.00;;;;;;5041970;28;20197;-69
2023/04/11 02:23:09;;;;;;;382.00;356.23;;;13.80;1.00;;;;;;5040111;28;20185;-69
2023/04/11 02:25:35;;;;;;;498.30;460.97;;;13.80;1.00;;;;;;5038161;28;20195;-68
2023/04/11 02:28:01;;;;;;;555.40;521.13;;;13.80;1.20;;;;;;5040847;28;20491;-69
2023/04/11 02:30:27;;;;;;;522.27;485.93;;;13.70;1.70;;;;;;5040172;28;20945;-69
2023/04/11 02:32:52;;;;;;;286.23;265.97;;;13.70;3.30;;;;;;5039837;28;20607;-69
2023/04/11 02:35:18;;;;;;;331.90;307.93;;;13.50;6.10;;;;;;5040493;28;20650;-68
2023/04/11 02:37:43;;;;;;;417.17;389.90;;;13.40;7.60;;;;;;5045993;28;20180;-68
2023/04/11 02:40:09;;;;;;;403.60;377.03;;;13.20;9.40;;;;;;5044485;28;20338;-68
2023/04/11 02:42:35;;;;;;;344.60;321.67;;;13.10;10.50;;;;;;5043023;28;20187;-68
2023/04/11 02:45:01;;;;;;;499.00;463.50;;;12.90;11.70;;;;;;5043502;28;20958;-68
2023/04/11 02:47:27;;;;;;;413.43;384.90;;;12.80;13.10;;;;;;5042318;28;20470;-68
2023/04/11 02:49:52;;;;;;;373.60;348.40;;;12.60;15.60;;;;;;5043293;28;20465;-68
2023/04/11 02:52:18;;;;;;;463.30;432.00;;;12.50;17.40;;;;;;5043326;28;20215;-68
2023/04/11 02:54:45;;;;;;;377.73;353.07;;;12.30;18.60;;;;;;5043135;28;20214;-68
2023/04/11 02:57:10;;;;;;;331.20;309.57;;;12.10;20.50;;;;;;5043645;28;20187;-68
2023/04/11 02:59:36;;;;;;;413.53;386.40;;;12.00;22.00;;;;;;5043356;28;20920;-68
2023/04/11 03:02:02;;;;;;;412.97;383.87;;;;;;;;;;5042173;28;20445;-68
2023/04/11 03:04:28;;;;;;;377.33;352.47;;;11.90;22.20;;;;;;5044337;28;20187;-68
2023/04/11 03:06:54;;;;;;;265.30;246.97;;;11.70;23.80;;;;;;5043682;28;20417;-68
2023/04/11 03:09:20;;;;;;;550.63;514.10;;;11.70;23.60;;;;;;5042477;28;20272;-67
2023/04/11 03:11:45;;;;;;;522.13;488.07;;;11.70;23.80;;;;;;5041411;28;20487;-67
2023/04/11 03:14:11;;;;;;;639.03;584.77;;;11.70;23.40;;;;;;5044193;28;20465;-68
2023/04/11 03:16:36;;;;;;;475.50;444.17;;;11.70;23.80;;;;;;5045867;28;20584;-68
2023/04/11 03:19:02;;;;;;;547.90;512.80;;;11.70;23.80;;;;;;5048043;28;20248;-68
2023/04/11 03:21:27;;;;;;;482.07;450.03;;;11.60;24.30;;;;;;5047707;28;20551;-67
2023/04/11 03:23:53;;;;;;;609.10;565.13;;;11.60;24.20;;;;;;5049886;28;20187;-68
2023/04/11 03:26:19;;;;;;;406.60;378.77;;;11.70;24.60;;;;;;5049254;28;20183;-68
2023/04/11 03:28:45;;;;;;;403.47;376.70;;;11.70;25.40;;;;;;5047562;28;20199;-68
2023/04/11 03:31:12;;;;;;;411.90;385.07;;;11.50;26.30;;;;;;5049023;28;20190;-68
2023/04/11 03:33:37;;;;;;;417.90;391.13;;;11.30;27.60;;;;;;5049163;28;20514;-68
2023/04/11 03:36:04;;;;;;;350.87;326.47;;;11.10;27.30;;;;;;5047028;28;20412;-68
2023/04/11 03:38:29;;;;;;;352.73;328.70;;;11.00;28.70;;;;;;5044390;28;20189;-69
2023/04/11 03:40:55;;;;;;;456.30;426.10;;;;;;;;;;5042753;28;20456;-68
2023/04/11 03:43:21;;;;;;;578.23;541.03;;;;;;;;;;5043367;28;20556;-68
2023/04/11 03:45:47;;;;;;;472.97;442.80;;;;;;;;;;5044289;28;20420;-68
2023/04/11 03:48:13;;;;;;;509.43;475.03;;;;;;;;;;5044126;28;20471;-67
2023/04/11 03:50:39;;;;;;;318.50;295.80;;;;;;;;;;5044428;28;20917;-68
2023/04/11 03:53:06;;;;;;;649.90;608.60;;;;;;;;;;5041258;28;20414;-67
2023/04/11 03:55:32;;;;;;;393.10;366.23;;;;;;;;;;5041040;28;20422;-67
2023/04/11 03:57:58;;;;;;;521.03;488.73;;;;;;;;;;5041664;28;20479;-67
2023/04/11 04:00:24;;;;;;;378.57;354.27;;;;;;;;;;5041143;28;20961;-68
2023/04/11 04:02:49;;;;;;;114.63;103.27;;;;;;;;;;5042146;28;20779;-67
2023/04/11 04:05:15;;;;;;;175.37;162.27;;;;;;;;;;5041817;28;20440;-67
2023/04/11 04:07:41;;;;;;;318.67;296.53;;;10.80;29.30;;;;;;5042039;28;20419;-67
2023/04/11 04:10:07;;;;;;;313.07;293.40;;;10.40;30.70;;;;;;5040436;28;20841;-67
2023/04/11 04:12:33;;;;;;;324.97;303.47;;;10.40;30.70;;;;;;5041661;28;20182;-67
2023/04/11 04:14:59;;;;;;;145.10;132.90;;;;;;;;;;5045039;28;20194;-67
2023/04/11 04:17:25;;;;;;;279.57;259.57;;;;;;;;;;5044500;28;20637;-68
2023/04/11 04:19:51;;;;;;;430.30;400.93;;;;;;;;;;5043817;28;20544;-68
2023/04/11 04:22:16;;;;;;;398.93;372.80;;;10.30;31.20;;;;;;5045288;28;20460;-68
2023/04/11 04:24:46;;;;;;;403.00;376.67;;;10.50;29.90;;;;;;5045962;28;20414;-68
2023/04/11 04:27:17;;;;;;;530.67;495.33;;;10.60;28.60;;;;;;5043732;28;20187;-68
2023/04/11 04:29:46;;;;;;;383.27;357.73;;;;;;;;;;5063421;23;20493;-68
2023/04/11 04:32:13;;;;;;;396.53;370.77;;;;;;;;;;5031874;28;20414;-69
2023/04/11 04:34:45;;;;;;;299.83;279.00;;;;;;;;;;5032181;28;20441;-70
2023/04/11 04:37:20;;;;;;;571.67;535.17;;;;;;;;;;5012567;28;20427;-70
2023/04/11 04:39:49;;;;;;;335.30;312.13;;;;;;;;;;5018189;28;20864;-70
2023/04/11 04:42:18;;;;;;;401.27;373.83;;;10.60;28.30;;;;;;5031803;28;20402;-71
2023/04/11 04:44:44;;;;;;;327.93;306.43;;;10.70;30.50;;;;;;5031842;28;21020;-72
2023/04/11 04:47:09;;;;;;;530.87;497.37;;;10.70;30.80;;;;;;5032130;28;20451;-71
2023/04/11 04:49:35;;;;;;;495.60;465.20;;;10.50;31.40;;;;;;5043247;28;20243;-71
2023/04/11 04:52:00;;;;;;;251.37;231.87;;;10.40;31.00;;;;;;5051880;28;20178;-71
2023/04/11 04:54:26;;;;;;;421.00;392.67;;;10.40;31.30;;;;;;5051572;28;20267;-71
2023/04/11 04:56:51;;;;;;;463.57;434.20;;;10.30;31.30;;;;;;5051721;28;20208;-71
2023/04/11 04:59:17;;;;;;;309.67;288.13;;;10.20;32.80;;;;;;5051365;28;20259;-71
2023/04/11 05:01:45;;;;;;;492.80;460.13;;;10.10;35.20;;;;;;5051543;28;20215;-72
2023/04/11 05:04:11;;;;;;;331.97;307.77;;;9.90;37.00;;;;;;5035235;28;20219;-71
2023/04/11 05:06:36;;;;;;;324.30;302.53;;;9.90;38.30;;;;;;5049586;28;20914;-71
2023/04/11 05:09:04;;;;;;;537.33;501.03;;;;;;;;;;5051349;28;20202;-71
2023/04/11 05:11:30;;;;;;;576.57;539.60;;;;;;;;;;5051324;28;20694;-71
2023/04/11 05:13:56;;;;;;;428.83;400.10;;;;;;;;;;5051433;28;20450;-72
2023/04/11 05:16:22;;;;;;;469.17;438.40;;;;;;;;;;5043950;28;20433;-72
2023/04/11 05:18:48;;;;;;;338.00;316.53;;;;;;;;;;5030519;28;20427;-71
2023/04/11 05:21:14;;;;;;;379.57;353.57;;;9.80;38.40;;;;;;5031615;28;20437;-71
2023/04/11 05:23:40;;;;;;;411.50;384.10;;;9.10;36.10;;;;;;5031866;28;20458;-71
2023/04/11 05:26:10;;;;;;;282.33;261.33;;;9.00;36.30;;;;;;5035243;28;20179;-71
2023/04/11 05:28:36;;;;;;;278.80;259.97;;;8.90;36.20;;;;;;5051716;28;20827;-71
2023/04/11 05:31:01;;;;;;;308.30;287.13;;;8.80;36.00;;;;;;5050192;28;20528;-71
2023/04/11 05:33:28;;;;;;;323.53;300.53;;;8.80;38.10;;;;;;5051728;28;20462;-71
2023/04/11 05:35:53;;;;;;;368.73;345.07;;;8.80;36.10;;;;;;5050135;28;20277;-71
2023/04/11 05:38:19;;;;;;;427.77;398.83;;;8.80;37.80;;;;;;5052939;28;20500;-72
2023/04/11 05:40:45;;;;;;;247.67;230.33;;;8.80;38.00;;;;;;5039412;28;20474;-73
2023/04/11 05:43:13;;;;;;;252.57;234.50;;;8.70;39.10;;;;;;5031361;28;20415;-69
2023/04/11 05:45:40;;;;;;;482.13;450.80;;;8.70;39.40;;;;;;5030095;28;20448;-70
2023/04/11 05:48:06;;;;;;;452.60;420.93;;;8.60;37.30;;;;;;5031331;28;20462;-70
2023/04/11 05:50:33;;;;;;;521.30;485.43;;;8.60;32.90;;;;;;5031490;28;20458;-70
2023/04/11 05:52:59;;;;;;;508.60;472.57;;;8.50;32.80;;;;;;5042993;28;20479;-70
2023/04/11 05:55:24;;;;;;;536.93;499.10;;;8.50;31.00;;;;;;5034947;28;20866;-69
2023/04/11 05:57:50;;;;;;;688.37;628.43;;;8.40;29.60;;;;;;5035851;28;20190;-70
2023/04/11 06:00:17;;;;;;;506.37;470.53;;;8.20;26.30;;;;;;5035301;28;20224;-70
2023/04/11 06:02:43;;;;;;;367.67;342.43;;;8.10;25.50;;;;;;5035044;28;20179;-69
2023/04/11 06:05:10;;;;;;;435.27;403.53;;;8.10;26.00;;;;;;5037710;28;20434;-70
2023/04/11 06:07:40;;;;;;;324.80;302.90;;;8.10;22.90;;;;;;5055412;28;20466;-69
2023/04/11 06:10:06;;;;;;;401.30;371.47;;;8.10;22.80;;;;;;5054763;28;20440;-70
2023/04/11 06:12:32;;;;;;;546.27;512.47;;;8.10;22.40;;;;;;5038100;28;20430;-70
2023/04/11 06:14:58;;;;;;;940.40;865.93;;;8.10;23.00;;;;;;5034889;28;20961;-68
2023/04/11 06:17:24;;;;;;;271.93;253.93;;;8.10;25.20;;;;;;5034800;28;20520;-69
2023/04/11 06:19:50;;;;;;;501.70;468.90;;;8.10;26.30;;;;;;5045530;28;20466;-69
2023/04/11 06:22:18;;;;;;;263.63;246.93;;;8.10;25.90;;;;;;5053334;28;21290;-69
2023/04/11 06:24:44;;;;;;;218.50;202.37;;;8.20;27.20;;;;;;5056035;28;20213;-68
2023/04/11 06:27:10;;;;;;;350.33;325.50;;;8.20;25.70;;;;;;5074034;28;20953;-69
2023/04/11 06:29:40;;;;;;;339.90;317.53;;;8.20;26.30;;;;;;5074347;28;20233;-70
2023/04/11 06:32:06;;;;;;;329.93;308.27;;;8.20;25.40;;;;;;5074048;28;20817;-70
2023/04/11 06:34:33;;;;;;;206.03;190.93;;;8.10;26.30;;;;;;5073397;28;20420;-70
2023/04/11 06:36:58;;;;;;;352.77;329.33;;;8.30;27.50;;;;;;5074452;28;20420;-70
2023/04/11 06:39:24;;;;;;;121.60;110.17;;;8.30;27.60;;;;;;5074729;28;20644;-70
2023/04/11 06:41:50;;;;;;;291.70;271.93;;;8.50;27.50;;;;;;5061784;28;20258;-71
2023/04/11 06:44:16;;;;;;;290.43;270.43;;;8.60;27.00;;;;;;5053311;28;20780;-71
2023/04/11 06:46:42;;;;;;;747.37;695.10;;;8.70;26.70;;;;;;5053743;28;20230;-69
2023/04/11 06:49:09;;;;;;;1064.30;980.07;;;8.80;26.30;;;;;;5036341;28;20418;-68
2023/04/11 06:51:35;;;;;;;1136.83;999.90;;;8.80;26.50;;;;;;5035083;28;20556;-67
2023/04/11 06:54:01;;;;;;;212.80;196.47;;;8.70;25.90;;;;;;5034111;28;20475;-67
2023/04/11 06:56:27;;;;;;;312.93;290.93;;;8.80;24.40;;;;;;5035065;28;20431;-67
2023/04/11 06:58:53;;;;;;;398.37;372.43;;;8.70;24.30;;;;;;5033927;28;20589;-70
2023/04/11 07:01:20;;;;;;;336.13;314.20;;;8.70;23.70;;;;;;5033709;28;20448;-70
2023/04/11 07:03:46;;;;;;;258.60;240.20;;;8.90;22.60;;;;;;5040698;28;20270;-70
2023/04/11 07:06:12;;;;;;;288.77;269.23;;;9.20;22.10;;;;;;5053659;28;20980;-70
2023/04/11 07:08:37;;;;;;;773.33;723.30;;;9.10;21.00;;;;;;5048205;28;20458;-70
2023/04/11 07:11:04;;;;;;;710.73;664.00;;;9.10;20.50;;;;;;5033644;28;20249;-70
2023/04/11 07:13:30;;;;;;;813.40;762.60;;;9.20;19.50;;;;;;5033383;28;20181;-70
2023/04/11 07:15:55;;;;;;;751.20;701.33;;;9.40;19.30;;;;;;5059326;28;20454;-69
2023/04/11 07:18:21;;;;;;;900.47;833.67;;;9.50;19.30;;;;;;5073350;28;20664;-69
2023/04/11 07:20:47;;;;;;;509.53;475.07;;;9.80;18.40;;;;;;5059794;28;20231;-70
2023/04/11 07:23:13;;;;;;;242.50;223.07;;;9.80;19.00;;;;;;5053335;28;20420;-70
2023/04/11 07:25:39;;;;;;;445.33;413.77;;;9.70;17.40;;;;;;5053797;28;20418;-70
2023/04/11 07:28:06;;;;;;;427.60;393.93;;;9.60;18.40;;;;;;5053688;28;20549;-70
2023/04/11 07:30:32;;;;;;;279.47;258.87;;;9.20;19.70;;;;;;5038272;28;20221;-71
2023/04/11 07:32:57;;;;;;;302.63;282.07;;;9.20;19.90;;;;;;5033538;28;20418;-69
2023/04/11 07:35:23;;;;;;;385.23;358.30;;;9.10;20.10;;;;;;5035019;28;20444;-70
2023/04/11 07:37:49;;;;;;;178.17;162.77;;;9.20;20.60;;;;;;5036227;28;20231;-71
2023/04/11 07:40:15;;;;;;;396.50;369.07;;;9.00;19.80;;;;;;5035502;28;20211;-71
2023/04/11 07:42:41;;;;;;;475.03;442.43;;;9.00;19.40;;;;;;5033190;28;20642;-71
2023/04/11 07:45:07;;;;;;;248.17;229.93;;;9.20;19.30;;;;;;5035546;28;20213;-72
2023/04/11 07:47:33;;;;;;;587.70;550.70;;;9.50;18.80;;;;;;5052649;28;20518;-69
2023/04/11 07:49:58;;;;;;;703.83;657.90;;;9.60;16.30;;;;;;5046048;28;20491;-69
2023/04/11 07:52:27;;;;;;;576.33;536.60;;;9.60;17.40;;;;;;5038276;28;20642;-70
2023/04/11 07:54:52;;;;;;;797.40;743.60;;;9.90;15.10;;;;;;5049005;28;20221;-70
2023/04/11 07:57:18;;;;;;;145.33;132.57;;;9.80;15.50;;;;;;5050898;28;20469;-70
2023/04/11 07:59:45;;;;;;;321.40;297.23;;;10.40;14.30;;;;;;5052439;28;20209;-71
2023/04/11 08:02:10;;;;;;;394.67;366.77;;;11.10;13.50;;;;;;5049319;28;20535;-70
2023/04/11 08:04:36;;;;;;;853.67;785.87;;;11.00;11.70;;;;;;5047444;28;20417;-71
2023/04/11 08:07:02;;;;;;;808.07;759.10;;;10.50;11.00;;;;;;5049016;28;20247;-70
2023/04/11 08:09:28;;;;;;;862.37;796.20;;;11.00;12.50;;;;;;5043339;28;20204;-71
2023/04/11 08:11:55;;;;;;;508.60;473.87;;;11.90;11.80;;;;;;5028912;28;20560;-71
2023/04/11 08:14:21;;;;;;;323.90;298.60;;;12.20;8.60;;;;;;5042117;28;20428;-69
2023/04/11 08:16:47;;;;;;;343.47;320.77;;;12.50;7.20;;;;;;5048603;28;20436;-71
2023/04/11 08:19:13;;;;;;;501.17;464.40;;;12.50;8.30;;;;;;5044194;28;20464;-72
2023/04/11 08:21:40;;;;;;;514.23;477.37;;;12.50;7.20;;;;;;5043359;28;20980;-71
2023/04/11 08:24:06;;;;;;;168.30;153.27;;;12.10;7.80;;;;;;5047597;28;20183;-74
2023/04/11 08:26:31;;;;;;;728.73;676.93;;;11.40;10.60;;;;;;5032097;28;20474;-74
2023/04/11 08:28:57;;;;;;;1080.87;983.90;;;11.10;9.90;;;;;;5030654;28;20500;-72
2023/04/11 08:31:22;;;;;;;1224.03;999.90;;;10.90;11.40;;;;;;5032117;28;20243;-71
2023/04/11 08:33:48;;;;;;;801.77;749.63;;;11.00;11.10;;;;;;5035311;28;20194;-72
2023/04/11 08:36:13;;;;;;;777.53;712.73;;;10.90;11.20;;;;;;5046749;28;20651;-72
2023/04/11 08:38:39;;;;;;;323.20;300.90;;;11.00;10.40;;;;;;5071765;28;20205;-72
2023/04/11 08:41:05;;;;;;;386.10;359.17;;;10.90;11.40;;;;;;5059338;28;20199;-72
2023/04/11 08:43:35;;;;;;;493.87;459.07;;;10.70;11.40;;;;;;5051689;28;20181;-72
2023/04/11 08:46:04;;;;;;;344.93;322.23;;;10.60;12.70;;;;;;5052132;28;20414;-73
2023/04/11 08:48:31;;;;;;;145.13;133.57;;;10.90;13.10;;;;;;5045262;28;20450;-76
2023/04/11 08:50:56;;;;;;;313.57;290.50;;;11.20;11.70;;;;;;5051973;28;20428;-69
2023/04/11 08:53:24;;;;;;;510.70;475.27;;;11.90;10.80;;;;;;5051655;28;20416;-72
2023/04/11 08:55:50;;;;;;;552.90;513.00;;;12.40;8.90;;;;;;5034287;28;20823;-72
2023/04/11 08:58:16;;;;;;;347.77;323.07;;;12.10;8.60;;;;;;5029607;28;20497;-72
2023/04/11 09:00:42;;;;;;;492.67;456.17;;;12.80;6.90;;;;;;5047008;28;20445;-72
2023/04/11 09:03:10;;;;;;;552.13;507.77;;;13.40;6.00;;;;;;5049424;28;20482;-72
2023/04/11 09:05:42;;;;;;;489.13;453.03;;;13.50;5.00;;;;;;5049852;28;20484;-72
2023/04/11 09:08:10;;;;;;;402.57;372.77;;;13.40;4.10;;;;;;5048607;28;20417;-72
2023/04/11 09:10:37;;;;;;;621.27;572.27;;;13.10;5.50;;;;;;5049568;28;20423;-72
2023/04/11 09:13:24;;;;;;;640.47;589.80;;;13.20;4.30;;;;;;5050020;28;20422;-72
2023/04/11 09:16:19;;;;;;;572.07;532.37;;;13.00;4.60;;;;;;5052578;28;20421;-72
2023/04/11 09:18:45;;;;;;;461.50;427.07;;;12.90;4.90;;;;;;5050601;28;20471;-71
2023/04/11 09:21:17;;;;;;;559.13;513.37;;;12.70;4.50;;;;;;5051449;28;20958;-72
2023/04/11 09:23:43;;;;;;;591.93;548.40;;;12.80;4.10;;;;;;5050334;28;20759;-73
2023/04/11 09:26:11;;;;;;;486.27;450.47;;;12.90;4.70;;;;;;5046128;28;20456;-73
2023/04/11 09:28:53;;;;;;;600.97;554.10;;;13.40;3.00;;;;;;5035784;28;20216;-73
2023/04/11 09:31:38;;;;;;;602.57;552.63;;;13.20;2.30;;;;;;5039932;28;20475;-72
2023/04/11 09:34:04;;;;;;;321.57;297.73;;;13.00;2.70;;;;;;5071964;28;20420;-72
2023/04/11 09:36:29;;;;;;;447.93;413.60;;;13.40;3.00;;;;;;5075416;28;20428;-72
2023/04/11 09:38:56;;;;;;;513.93;475.43;;;13.60;2.60;;;;;;5075416;28;20506;-71
2023/04/11 09:41:30;;;;;;;498.37;461.10;;;;;;;;;;5055686;28;20338;-72
2023/04/11 09:43:56;;;;;;;451.03;418.33;;;;;;;;;;5055417;28;20433;-72
2023/04/11 09:46:22;;;;;;;311.57;287.77;;;13.30;1.00;;;;;;5055289;28;20900;-71
2023/04/11 09:48:48;;;;;;;503.30;466.50;;;13.00;2.30;;;;;;5055009;28;20480;-70
2023/04/11 09:51:15;;;;;;;508.03;470.33;;;13.40;3.00;;;;;;5053555;28;20502;-70
2023/04/11 09:53:41;;;;;;;509.93;470.63;;;13.30;2.00;;;;;;5034769;28;21032;-70
2023/04/11 09:56:08;;;;;;;448.10;414.87;;;13.80;1.00;;;;;;5041829;28;20477;-70
2023/04/11 09:58:35;;;;;;;735.40;665.87;;;;;;;;;;5057262;28;20417;-71
2023/04/11 10:01:02;;;;;;;470.20;435.27;;;13.90;1.00;;;;;;5053695;28;20433;-70
2023/04/11 10:03:33;;;;;;;501.67;463.10;;;13.70;1.00;;;;;;5054446;28;20798;-71
2023/04/11 10:06:01;;;;;;;376.60;347.50;;;12.90;2.20;;;;;;5048223;28;20969;-71
2023/04/11 10:08:31;;;;;;;485.07;450.73;;;12.80;3.00;;;;;;5034751;28;20422;-70
2023/04/11 10:11:06;;;;;;;390.17;361.03;;;13.20;3.60;;;;;;5044383;28;20456;-71
2023/04/11 10:13:38;;;;;;;460.97;427.23;;;13.90;3.40;;;;;;5055353;28;20818;-70
2023/04/11 10:16:19;;;;;;;253.53;233.07;;;14.10;2.00;;;;;;5054762;28;20412;-70
2023/04/11 10:19:16;;;;;;;481.77;442.37;;;13.90;1.70;;;;;;5054452;28;20464;-71
2023/04/11 10:21:42;;;;;;;490.03;456.63;;;13.50;1.90;;;;;;5054432;28;20421;-71
2023/04/11 10:24:11;;;;;;;430.60;398.97;;;;;;;;;;5054615;28;20929;-71
2023/04/11 10:26:47;;;;;;;393.87;365.10;;;13.50;2.50;;;;;;5053386;28;20328;-71
2023/04/11 10:32:16;;;;;;;348.53;321.03;;;12.00;4.60;;;;;;5042511;28;20483;-71
2023/04/11 10:34:53;;;;;;;312.60;289.07;;;11.60;5.70;;;;;;5034535;28;20402;-73
2023/04/11 10:37:32;;;;;;;175.60;160.63;;;11.80;6.40;;;;;;5033961;28;20413;-71
2023/04/11 10:39:59;;;;;;;423.43;391.87;;;12.10;6.10;;;;;;5035477;28;20470;-72
2023/04/11 10:42:43;;;;;;;150.97;137.87;;;12.50;5.00;;;;;;5034475;28;20414;-71
2023/04/11 10:45:18;;;;;;;391.70;363.03;;;13.10;3.50;;;;;;5042471;28;20423;-75
2023/04/11 10:48:02;;;;;;;491.03;454.57;;;13.80;3.30;;;;;;5046983;28;20416;-71
2023/04/11 10:50:30;;;;;;;399.20;369.83;;;14.00;1.60;;;;;;5054253;28;20438;-71
2023/04/11 10:52:57;;;;;;;440.50;409.40;;;14.10;1.60;;;;;;5054394;28;20413;-71
2023/04/11 10:55:25;;;;;;;234.77;216.27;;;14.00;1.40;;;;;;5054008;28;20768;-71
2023/04/11 10:58:15;;;;;;;457.73;422.47;;;14.70;1.00;;;;;;5053951;28;20423;-71
2023/04/11 11:00:50;;;;;;;439.13;407.37;;;14.60;1.00;;;;;;5034032;28;20555;-71
2023/04/11 11:03:27;;;;;;;529.63;485.70;;;14.50;1.00;;;;;;5033624;28;20412;-71
2023/04/11 11:06:06;;;;;;;291.03;268.50;;;14.80;1.00;;;;;;5033978;28;20417;-71
2023/04/11 11:08:40;;;;;;;496.70;458.90;;;14.80;1.00;;;;;;5033762;28;20437;-71
2023/04/11 11:11:10;;;;;;;504.03;467.27;;;14.70;1.00;;;;;;5033807;28;20594;-71
2023/04/11 11:13:49;;;;;;;525.37;485.97;;;14.60;1.00;;;;;;5046717;28;20480;-71
2023/04/11 11:16:19;;;;;;;320.20;294.77;;;14.90;1.00;;;;;;5053655;28;20405;-72
2023/04/11 11:18:50;;;;;;;436.70;404.43;;;15.20;1.00;;;;;;5052133;28;20463;-71
2023/04/11 11:21:23;;;;;;;524.07;486.27;;;14.90;1.00;;;;;;5053208;28;20436;-71
2023/04/11 11:24:01;;;;;;;519.20;481.57;;;14.70;1.00;;;;;;5053163;28;20412;-71
2023/04/11 11:26:43;;;;;;;343.90;318.03;;;14.60;1.00;;;;;;5046212;28;20436;-71
2023/04/11 11:29:10;;;;;;;475.47;441.30;;;14.60;1.00;;;;;;5032933;28;20414;-71
2023/04/11 11:31:44;;;;;;;450.00;417.53;;;14.50;1.00;;;;;;5031950;28;20428;-71
2023/04/11 11:34:10;;;;;;;535.20;493.23;;;14.40;1.00;;;;;;5033219;28;20417;-71
2023/04/11 11:36:42;;;;;;;585.37;540.60;;;14.60;1.00;;;;;;5033126;28;20414;-71
2023/04/11 11:39:09;;;;;;;290.40;267.80;;;;;;;;;;5032797;28;20828;-71
2023/04/11 11:41:35;;;;;;;608.80;560.90;;;;;;;;;;5051493;28;20530;-70
2023/04/11 11:44:05;;;;;;;818.00;746.43;;;;;;;;;;5053738;28;20436;-70
2023/04/11 11:46:34;;;;;;;665.30;612.27;;;14.50;1.00;;;;;;5051496;28;20416;-70
2023/04/11 11:49:01;;;;;;;921.30;840.03;;;;;;;;;;5052127;28;20424;-70
2023/04/11 11:51:38;;;;;;;621.13;573.10;;;;;;;;;;5053353;28;20776;-73
2023/04/11 11:54:08;;;;;;;552.60;510.47;;;;;;;;;;5049546;28;20448;-70
2023/04/11 11:56:34;;;;;;;547.50;506.37;;;;;;;;;;5039973;28;20417;-70
2023/04/11 11:59:02;;;;;;;333.83;307.87;;;;;;;;;;5052127;28;20892;-69
2023/04/11 12:01:28;;;;;;;533.63;492.70;;;14.60;1.00;;;;;;5048476;28;20423;-70
2023/04/11 12:03:56;;;;;;;625.83;580.23;;;14.00;1.00;;;;;;5036633;28;20527;-70
2023/04/11 12:06:27;;;;;;;1003.40;893.60;;;13.90;1.00;;;;;;5032260;28;20482;-70
2023/04/11 12:09:00;;;;;;;258.03;236.73;;;13.60;1.00;;;;;;5030999;28;20444;-74
2023/04/11 12:11:25;;;;;;;928.23;834.13;;;13.60;1.00;;;;;;5032143;28;20430;-74
2023/04/11 12:13:52;;;;;;;779.30;715.67;;;13.50;1.00;;;;;;5031952;28;20448;-71
2023/04/11 12:16:21;;;;;;;731.57;674.87;;;13.80;1.00;;;;;;5037678;28;20183;-69
2023/04/11 12:18:46;;;;;;;722.13;663.60;;;14.20;1.00;;;;;;5052695;28;20968;-71
2023/04/11 12:21:12;;;;;;;681.93;630.20;;;14.40;1.00;;;;;;5052444;28;20441;-70
2023/04/11 12:23:37;;;;;;;399.97;369.20;;;14.40;1.00;;;;;;5041179;28;20184;-71
2023/04/11 12:26:03;;;;;;;370.90;343.77;;;14.50;1.00;;;;;;5032422;28;20701;-71
2023/04/11 12:28:31;;;;;;;618.30;570.67;;;14.50;1.00;;;;;;5032433;28;20182;-70
2023/04/11 12:30:57;;;;;;;439.30;408.43;;;14.50;1.00;;;;;;5045648;28;20224;-69
2023/04/11 12:33:22;;;;;;;604.20;558.67;;;14.70;1.00;;;;;;5052018;28;20409;-68
2023/04/11 12:35:48;;;;;;;449.97;417.40;;;14.90;1.00;;;;;;5052030;28;20203;-71
2023/04/11 12:38:13;;;;;;;517.03;479.57;;;15.20;1.00;;;;;;5052236;28;20205;-72
2023/04/11 12:40:39;;;;;;;561.63;520.90;;;14.90;1.00;;;;;;5050872;28;20206;-72
2023/04/11 12:43:04;;;;;;;398.93;368.73;;;15.10;1.00;;;;;;5050814;28;20197;-71
2023/04/11 12:45:32;;;;;;;343.57;317.13;;;15.20;1.00;;;;;;5032625;28;20178;-71